Time;durP1;ratioP1;P1;durP2;ratioP2;P2;SDS_P1;SDS_P2;PMS_P1;PMS_P2;Temp;Humidity;BMP_temperature;BMP_pressure;BME280_temperature;BME280_humidity;BME280_pressure;Samples;Min_cycle;Max_cycle;Signal;HPM_P1;HPM_P2
2021/10/04 00:01:40;;;;;;;0.30;0.20;;;;;;;15.25;100.00;100125.19;5015542;28;20826;-49
2021/10/04 00:04:07;;;;;;;0.40;0.20;;;;;;;15.26;100.00;100127.78;5015293;28;20448;-49
2021/10/04 00:06:34;;;;;;;0.33;0.20;;;;;;;15.18;100.00;100138.00;5015338;28;20526;-49
2021/10/04 00:09:02;;;;;;;0.40;0.20;;;;;;;15.16;100.00;100136.34;5013792;28;20874;-49
2021/10/04 00:11:29;;;;;;;0.30;0.20;;;;;;;15.19;100.00;100155.78;5003954;28;20480;-49
2021/10/04 00:13:56;;;;;;;0.40;0.20;;;;;;;15.25;100.00;100165.34;5014511;28;20460;-49
2021/10/04 00:16:23;;;;;;;0.30;0.20;;;;;;;15.17;100.00;100167.53;5008808;28;20547;-49
2021/10/04 00:18:50;;;;;;;0.40;0.20;;;;;;;15.27;100.00;100167.00;5010626;28;20543;-49
2021/10/04 00:21:17;;;;;;;0.37;0.20;;;;;;;15.31;100.00;100167.72;5015081;28;20942;-49
2021/10/04 00:23:44;;;;;;;0.30;0.20;;;;;;;15.10;100.00;100178.56;5014899;28;20874;-49
2021/10/04 00:26:12;;;;;;;0.40;0.20;;;;;;;15.19;100.00;100187.94;5014939;28;20563;-49
2021/10/04 00:28:39;;;;;;;0.40;0.20;;;;;;;15.27;100.00;100198.28;5014965;28;20449;-48
2021/10/04 00:31:06;;;;;;;0.40;0.30;;;;;;;15.17;100.00;100200.53;5015111;28;20452;-49
2021/10/04 00:33:33;;;;;;;0.30;0.20;;;;;;;15.24;100.00;100193.94;5014742;28;20635;-49
2021/10/04 00:36:00;;;;;;;0.30;0.20;;;;;;;15.15;100.00;100198.88;5015337;28;20622;-50
2021/10/04 00:38:27;;;;;;;0.40;0.20;;;;;;;15.10;100.00;100199.09;5029709;28;20620;-50
2021/10/04 00:40:54;;;;;;;0.40;0.20;;;;;;;15.05;100.00;100206.47;5014769;28;20495;-50
2021/10/04 00:43:21;;;;;;;0.40;0.20;;;;;;;15.09;100.00;100200.06;5014640;28;20499;-50
2021/10/04 00:45:49;;;;;;;0.40;0.20;;;;;;;15.08;100.00;100196.50;5014546;28;20564;-49
2021/10/04 00:48:17;;;;;;;0.30;0.20;;;;;;;15.11;100.00;100201.72;5011820;28;20452;-50
2021/10/04 00:50:44;;;;;;;0.40;0.20;;;;;;;15.14;100.00;100186.44;5014663;28;20503;-50
2021/10/04 00:53:11;;;;;;;0.40;0.20;;;;;;;15.18;100.00;100183.50;5014279;28;20535;-50
2021/10/04 00:55:39;;;;;;;0.40;0.20;;;;;;;15.21;100.00;100178.00;5014279;28;20522;-50
2021/10/04 00:58:06;;;;;;;0.30;0.20;;;;;;;15.20;100.00;100167.38;5013310;28;20480;-50
2021/10/04 01:00:33;;;;;;;0.40;0.20;;;;;;;15.14;100.00;100168.56;5014315;28;20499;-50
2021/10/04 01:03:00;;;;;;;0.40;0.20;;;;;;;15.14;100.00;100154.31;5014269;28;20451;-50
2021/10/04 01:05:32;;;;;;;0.40;0.20;;;;;;;15.05;100.00;100152.94;5014173;28;20498;-50
2021/10/04 01:07:59;;;;;;;0.40;0.20;;;;;;;15.04;100.00;100146.72;5014330;28;20844;-49
2021/10/04 01:10:27;;;;;;;0.30;0.20;;;;;;;15.04;100.00;100140.50;5001372;28;20504;-50
2021/10/04 01:12:54;;;;;;;0.33;0.20;;;;;;;14.98;100.00;100136.31;5001670;28;20492;-49
2021/10/04 01:15:22;;;;;;;0.30;0.20;;;;;;;15.02;100.00;100135.22;5014378;28;20449;-49
2021/10/04 01:17:49;;;;;;;0.30;0.20;;;;;;;15.10;100.00;100143.75;5003172;28;20460;-49
2021/10/04 01:20:19;;;;;;;0.30;0.20;;;;;;;15.12;100.00;100157.06;5013711;28;20456;-50
2021/10/04 01:22:46;;;;;;;0.30;0.20;;;;;;;15.05;100.00;100142.22;5013949;28;20487;-50
2021/10/04 01:25:14;;;;;;;0.40;0.20;;;;;;;14.94;100.00;100142.78;5013713;28;20479;-51
2021/10/04 01:27:42;;;;;;;0.40;0.20;;;;;;;14.93;100.00;100151.72;5013794;28;20938;-50
2021/10/04 01:30:11;;;;;;;0.30;0.20;;;;;;;14.88;100.00;100150.22;5013744;28;20449;-50
2021/10/04 01:32:39;;;;;;;0.30;0.20;;;;;;;14.81;100.00;100130.94;5013592;28;20496;-50
2021/10/04 01:35:07;;;;;;;0.30;0.20;;;;;;;14.84;100.00;100144.16;5013526;28;21020;-50
2021/10/04 01:37:34;;;;;;;0.30;0.20;;;;;;;14.88;100.00;100169.81;5013661;28;20453;-50
2021/10/04 01:40:01;;;;;;;0.30;0.20;;;;;;;14.95;100.00;100168.59;5013474;28;20914;-50
2021/10/04 01:42:28;;;;;;;0.30;0.20;;;;;;;14.83;100.00;100150.44;5013571;28;20449;-50
2021/10/04 01:44:55;;;;;;;0.30;0.20;;;;;;;14.83;100.00;100150.44;5013361;28;20461;-50
2021/10/04 01:47:22;;;;;;;0.30;0.20;;;;;;;14.87;100.00;100168.09;5011406;28;20476;-50
2021/10/04 01:49:49;;;;;;;0.30;0.20;;;;;;;14.85;100.00;100169.97;5013487;28;20456;-50
2021/10/04 01:52:16;;;;;;;0.30;0.20;;;;;;;14.86;100.00;100170.84;5013351;28;20492;-50
2021/10/04 01:54:43;;;;;;;0.30;0.20;;;;;;;14.73;100.00;100166.06;5013450;28;20884;-49
2021/10/04 01:57:10;;;;;;;0.30;0.20;;;;;;;14.80;100.00;100170.22;5028446;28;20539;-50
2021/10/04 01:59:37;;;;;;;0.33;0.20;;;;;;;14.77;100.00;100173.00;5013068;28;20485;-51
2021/10/04 02:02:05;;;;;;;0.40;0.20;;;;;;;14.74;100.00;100178.50;5013266;28;20480;-50
2021/10/04 02:04:32;;;;;;;0.30;0.20;;;;;;;14.74;100.00;100165.13;5013059;28;20570;-50
2021/10/04 02:07:00;;;;;;;0.40;0.20;;;;;;;14.67;100.00;100173.53;5013290;28;20501;-50
2021/10/04 02:09:27;;;;;;;0.40;0.20;;;;;;;14.62;100.00;100167.53;5008191;28;20876;-50
2021/10/04 02:11:54;;;;;;;0.30;0.20;;;;;;;14.54;100.00;100167.03;5005001;28;20464;-50
2021/10/04 02:14:21;;;;;;;0.30;0.20;;;;;;;14.48;100.00;100173.50;5012856;28;20490;-50
2021/10/04 02:16:48;;;;;;;0.37;0.20;;;;;;;14.37;100.00;100178.44;5003369;28;20516;-49
2021/10/04 02:19:15;;;;;;;0.30;0.20;;;;;;;14.31;100.00;100168.91;5011966;28;20453;-50
2021/10/04 02:21:43;;;;;;;0.37;0.20;;;;;;;14.19;100.00;100170.34;5013022;28;20483;-50
2021/10/04 02:24:12;;;;;;;0.40;0.30;;;;;;;14.09;100.00;100162.78;5012849;28;20479;-50
2021/10/04 02:26:42;;;;;;;0.30;0.20;;;;;;;13.84;100.00;100161.25;5027821;28;20473;-50
2021/10/04 02:29:09;;;;;;;0.30;0.20;;;;;;;13.79;100.00;100162.38;4986628;28;20511;-50
2021/10/04 02:31:36;;;;;;;0.33;0.20;;;;;;;13.46;100.00;100162.03;5012888;28;20519;-49
2021/10/04 02:34:03;;;;;;;0.30;0.20;;;;;;;13.44;100.00;100156.75;5012670;28;20492;-50
2021/10/04 02:36:30;;;;;;;0.40;0.20;;;;;;;13.42;100.00;100158.59;5012000;28;20473;-50
2021/10/04 02:38:56;;;;;;;0.40;0.20;;;;;;;13.54;100.00;100158.06;5012756;28;20449;-50
2021/10/04 02:41:23;;;;;;;0.30;0.20;;;;;;;13.48;100.00;100157.47;5012356;28;20456;-51
2021/10/04 02:43:50;;;;;;;0.37;0.20;;;;;;;13.60;100.00;100162.31;5012669;28;20452;-50
2021/10/04 02:46:17;;;;;;;0.40;0.20;;;;;;;13.81;100.00;100171.16;5010362;28;20500;-50
2021/10/04 02:48:44;;;;;;;0.40;0.20;;;;;;;14.03;100.00;100177.31;5012591;28;20453;-49
2021/10/04 02:51:12;;;;;;;0.30;0.20;;;;;;;14.22;100.00;100180.03;5012485;28;20927;-50
2021/10/04 02:53:40;;;;;;;0.30;0.20;;;;;;;14.14;100.00;100171.50;5012305;28;20523;-50
2021/10/04 02:56:07;;;;;;;0.30;0.20;;;;;;;14.15;100.00;100170.56;5012348;28;20499;-50
2021/10/04 02:58:34;;;;;;;0.30;0.20;;;;;;;14.20;100.00;100166.72;5012602;28;20599;-50
2021/10/04 03:01:01;;;;;;;0.40;0.20;;;;;;;14.22;100.00;100178.22;5012530;28;20513;-50
2021/10/04 03:03:28;;;;;;;0.30;0.30;;;;;;;14.26;100.00;100184.31;5012419;28;20541;-49
2021/10/04 03:05:55;;;;;;;0.30;0.20;;;;;;;14.35;100.00;100178.53;5012341;28;20963;-49
2021/10/04 03:08:22;;;;;;;0.40;0.20;;;;;;;14.32;100.00;100181.34;5012214;28;20487;-50
2021/10/04 03:10:50;;;;;;;0.40;0.20;;;;;;;14.32;100.00;100186.69;4999201;28;20444;-50
2021/10/04 03:13:17;;;;;;;0.30;0.20;;;;;;;14.38;100.00;100194.41;5012242;28;20546;-50
2021/10/04 03:15:44;;;;;;;0.30;0.20;;;;;;;14.39;100.00;100195.28;5011031;28;20552;-50
2021/10/04 03:18:11;;;;;;;0.30;0.20;;;;;;;14.37;100.00;100203.38;5003215;28;20488;-51
2021/10/04 03:20:40;;;;;;;0.40;0.40;;;;;;;14.38;100.00;100205.13;5012062;28;20480;-50
2021/10/04 03:23:07;;;;;;;0.30;0.20;;;;;;;14.37;100.00;100219.44;5012172;28;20488;-49
2021/10/04 03:25:35;;;;;;;0.30;0.20;;;;;;;14.37;100.00;100213.22;5012155;28;20503;-50
2021/10/04 03:28:04;;;;;;;0.30;0.20;;;;;;;14.36;100.00;100214.16;5012436;28;20495;-50
2021/10/04 03:30:31;;;;;;;0.40;0.30;;;;;;;14.34;100.00;100216.91;5012236;28;20453;-50
2021/10/04 03:32:58;;;;;;;0.30;0.20;;;;;;;14.35;100.00;100221.31;5012439;28;20856;-50
2021/10/04 03:35:25;;;;;;;0.30;0.20;;;;;;;14.27;100.00;100219.94;5012010;28;20889;-50
2021/10/04 03:37:52;;;;;;;0.30;0.20;;;;;;;14.21;100.00;100224.59;5012308;28;20453;-50
2021/10/04 03:40:19;;;;;;;0.30;0.20;;;;;;;14.20;100.00;100225.53;5011931;28;20985;-50
2021/10/04 03:42:47;;;;;;;0.30;0.20;;;;;;;14.03;100.00;100224.56;5012209;28;20480;-50
2021/10/04 03:45:14;;;;;;;0.30;0.20;;;;;;;13.72;100.00;100230.38;5012495;28;20453;-50
2021/10/04 03:47:42;;;;;;;0.30;0.20;;;;;;;13.89;100.00;100222.50;5010619;28;20962;-50
2021/10/04 03:50:11;;;;;;;0.30;0.20;;;;;;;13.97;100.00;100214.97;5014496;28;20488;-51
2021/10/04 03:52:39;;;;;;;0.30;0.20;;;;;;;13.94;100.00;100226.69;5015473;28;20917;-51
2021/10/04 03:55:08;;;;;;;0.30;0.20;;;;;;;14.13;100.00;100221.41;5030604;28;20448;-50
2021/10/04 03:57:37;;;;;;;0.30;0.20;;;;;;;14.10;100.00;100218.00;5015387;28;20455;-51
2021/10/04 04:00:08;;;;;;;0.30;0.20;;;;;;;14.02;100.00;100229.03;5015640;28;20499;-51
2021/10/04 04:02:35;;;;;;;0.30;0.20;;;;;;;13.97;100.00;100228.34;5015315;28;20476;-51
2021/10/04 04:05:03;;;;;;;0.37;0.20;;;;;;;13.81;100.00;100237.97;5015251;28;20539;-51
2021/10/04 04:07:30;;;;;;;0.40;0.33;;;;;;;13.99;100.00;100230.97;5015176;28;20448;-49
2021/10/04 04:09:57;;;;;;;0.30;0.20;;;;;;;13.88;100.00;100237.66;5006204;28;20461;-50
2021/10/04 04:12:24;;;;;;;0.30;0.20;;;;;;;13.97;100.00;100231.03;5011237;28;20472;-50
2021/10/04 04:14:50;;;;;;;0.30;0.20;;;;;;;13.88;100.00;100228.78;5015248;28;20506;-50
2021/10/04 04:17:17;;;;;;;0.30;0.20;;;;;;;13.85;100.00;100224.44;5003829;28;20613;-50
2021/10/04 04:19:44;;;;;;;0.30;0.20;;;;;;;13.70;100.00;100229.53;5014917;28;20506;-50
2021/10/04 04:22:11;;;;;;;0.30;0.20;;;;;;;13.68;100.00;100223.38;5015103;28;20484;-50
2021/10/04 04:24:38;;;;;;;0.47;0.43;;;;;;;13.84;100.00;100229.81;5015136;28;20448;-50
2021/10/04 04:27:07;;;;;;;0.30;0.20;;;;;;;14.01;100.00;100218.41;5014751;28;20522;-50
2021/10/04 04:29:36;;;;;;;0.30;0.20;;;;;;;14.00;100.00;100227.38;5014741;28;20511;-50
2021/10/04 04:32:05;;;;;;;0.40;0.30;;;;;;;13.97;100.00;100251.53;5014786;28;20487;-50
2021/10/04 04:34:32;;;;;;;0.30;0.20;;;;;;;14.04;100.00;100251.22;5014823;28;20492;-50
2021/10/04 04:36:59;;;;;;;0.30;0.20;;;;;;;14.03;100.00;100270.88;5014554;28;20887;-50
2021/10/04 04:39:27;;;;;;;0.30;0.20;;;;;;;14.17;100.00;100265.78;5014776;28;20489;-50
2021/10/04 04:41:54;;;;;;;0.30;0.20;;;;;;;14.10;100.00;100271.44;5014612;28;20484;-50
2021/10/04 04:44:22;;;;;;;0.30;0.20;;;;;;;14.07;100.00;100276.94;5014509;28;20942;-50
2021/10/04 04:46:50;;;;;;;0.30;0.20;;;;;;;14.15;100.00;100288.19;5012652;28;20531;-50
2021/10/04 04:49:18;;;;;;;0.30;0.20;;;;;;;14.14;100.00;100289.13;5014720;28;20567;-50
2021/10/04 04:51:45;;;;;;;0.30;0.20;;;;;;;14.12;100.00;100289.19;5014439;28;20499;-50
2021/10/04 04:54:12;;;;;;;0.30;0.20;;;;;;;14.15;100.00;100282.84;5014508;28;20542;-49
2021/10/04 04:56:39;;;;;;;0.30;0.20;;;;;;;14.21;100.00;100291.44;5014090;28;20468;-50
2021/10/04 04:59:06;;;;;;;1.10;1.07;;;;;;;14.14;100.00;100283.78;5014413;28;20507;-50
2021/10/04 05:01:33;;;;;;;0.30;0.20;;;;;;;14.14;100.00;100287.31;5013904;28;20484;-50
2021/10/04 05:04:00;;;;;;;0.30;0.20;;;;;;;14.10;100.00;100291.03;5014383;28;20449;-49
2021/10/04 05:06:27;;;;;;;0.30;0.20;;;;;;;14.17;100.00;100292.53;5014320;28;20504;-51
2021/10/04 05:08:54;;;;;;;0.30;0.20;;;;;;;14.15;100.00;100302.41;5013595;28;20503;-49
2021/10/04 05:11:21;;;;;;;0.30;0.20;;;;;;;14.22;100.00;100314.56;5001509;28;20480;-49
2021/10/04 05:13:48;;;;;;;0.30;0.20;;;;;;;14.16;100.00;100309.50;5013853;28;20520;-50
2021/10/04 05:16:17;;;;;;;0.30;0.20;;;;;;;14.18;100.00;100304.09;5008560;28;20473;-50
2021/10/04 05:18:44;;;;;;;0.30;0.20;;;;;;;14.18;100.00;100302.28;5008396;28;20534;-50
2021/10/04 05:21:11;;;;;;;0.30;0.20;;;;;;;14.12;100.00;100305.22;5013910;28;20806;-50
2021/10/04 05:23:38;;;;;;;0.30;0.20;;;;;;;14.27;100.00;100325.09;5013793;28;20448;-50
2021/10/04 05:26:05;;;;;;;0.30;0.20;;;;;;;14.32;100.00;100323.06;5014054;28;20587;-50
2021/10/04 05:28:32;;;;;;;0.30;0.20;;;;;;;14.33;100.00;100326.59;5013910;28;20587;-50
2021/10/04 05:30:59;;;;;;;0.30;0.20;;;;;;;14.26;100.00;100334.03;5013821;28;20453;-50
2021/10/04 05:33:27;;;;;;;0.30;0.20;;;;;;;14.21;100.00;100338.69;5013646;28;20488;-50
2021/10/04 05:35:54;;;;;;;0.40;0.20;;;;;;;14.37;100.00;100346.94;5013637;28;20512;-50
2021/10/04 05:38:22;;;;;;;0.30;0.20;;;;;;;14.39;100.00;100356.66;5013307;28;20484;-50
2021/10/04 05:40:50;;;;;;;0.47;0.40;;;;;;;14.59;100.00;100362.97;5013639;28;20821;-50
2021/10/04 05:43:17;;;;;;;0.40;0.30;;;;;;;14.37;100.00;100366.50;5012242;28;20539;-50
2021/10/04 05:45:44;;;;;;;0.40;0.30;;;;;;;14.33;100.00;100372.94;5013710;28;20883;-50
2021/10/04 05:48:11;;;;;;;0.30;0.20;;;;;;;14.31;100.00;100381.97;5010755;28;20444;-49
2021/10/04 05:50:38;;;;;;;0.30;0.20;;;;;;;14.30;100.00;100381.09;5013417;28;20460;-49
2021/10/04 05:53:05;;;;;;;0.30;0.30;;;;;;;14.22;100.00;100370.72;5013079;28;20530;-50
2021/10/04 05:55:32;;;;;;;0.40;0.30;;;;;;;14.26;100.00;100367.94;5013275;28;20476;-50
2021/10/04 05:57:59;;;;;;;0.30;0.20;;;;;;;14.12;100.00;100380.06;5013334;28;20800;-50
2021/10/04 06:00:26;;;;;;;0.30;0.30;;;;;;;14.19;100.00;100376.19;5013368;28;20896;-50
2021/10/04 06:02:53;;;;;;;0.30;0.20;;;;;;;14.05;100.00;100375.91;5013310;28;20483;-50
2021/10/04 06:05:20;;;;;;;0.30;0.20;;;;;;;13.76;100.00;100376.22;5013099;28;20452;-49
2021/10/04 06:07:47;;;;;;;0.30;0.20;;;;;;;13.98;100.00;100379.78;5013184;28;20475;-50
2021/10/04 06:10:16;;;;;;;0.30;0.20;;;;;;;13.81;100.00;100375.09;5001936;28;20441;-50
2021/10/04 06:12:43;;;;;;;0.30;0.20;;;;;;;13.96;100.00;100375.41;5010755;28;20452;-50
2021/10/04 06:15:10;;;;;;;0.40;0.20;;;;;;;14.12;100.00;100380.06;5013203;28;20484;-50
2021/10/04 06:17:37;;;;;;;0.30;0.20;;;;;;;14.11;100.00;100377.44;5001868;28;20532;-50
2021/10/04 06:20:05;;;;;;;0.30;0.20;;;;;;;14.20;100.00;100383.28;5012885;28;20452;-50
2021/10/04 06:22:33;;;;;;;2.10;0.70;;;;;;;14.16;100.00;100389.69;5012694;28;20888;-50
2021/10/04 06:25:00;;;;;;;0.30;0.20;;;;;;;14.15;100.00;100387.09;5013068;28;20456;-50
2021/10/04 06:27:27;;;;;;;0.30;0.20;;;;;;;14.06;100.00;100395.47;5012539;28;20522;-50
2021/10/04 06:29:53;;;;;;;0.40;0.40;;;;;;;14.08;100.00;100404.31;5012806;28;20876;-50
2021/10/04 06:32:21;;;;;;;0.30;0.20;;;;;;;14.07;100.00;100408.78;4986704;28;21019;-49
2021/10/04 06:34:47;;;;;;;0.50;0.50;;;;;;;14.13;100.00;100395.19;5012413;28;20488;-49
2021/10/04 06:37:15;;;;;;;0.30;0.20;;;;;;;14.15;100.00;100369.25;5046903;22;20506;-58
2021/10/04 06:39:41;;;;;;;0.30;0.20;;;;;;;14.13;100.00;100397.84;5052137;28;20490;-58
2021/10/04 06:42:09;;;;;;;0.30;0.20;;;;;;;14.26;100.00;100408.91;5052608;28;20857;-58
2021/10/04 06:44:37;;;;;;;0.30;0.20;;;;;;;14.16;100.00;100420.91;5052145;28;20471;-58
2021/10/04 06:47:04;;;;;;;0.30;0.20;;;;;;;14.23;100.00;100428.59;5049003;28;20470;-59
2021/10/04 06:49:32;;;;;;;0.30;0.20;;;;;;;14.32;100.00;100424.69;5052111;28;20477;-59
2021/10/04 06:52:01;;;;;;;0.30;0.20;;;;;;;14.37;100.00;100422.69;5052240;28;20508;-59
2021/10/04 06:54:27;;;;;;;0.30;0.20;;;;;;;14.38;100.00;100428.88;5051980;28;20491;-59
2021/10/04 06:56:54;;;;;;;0.30;0.20;;;;;;;14.42;100.00;100422.50;5052376;28;20498;-59
2021/10/04 06:59:21;;;;;;;0.30;0.20;;;;;;;14.30;100.00;100420.34;5052011;28;21004;-58
2021/10/04 07:01:48;;;;;;;0.30;0.20;;;;;;;14.25;100.00;100417.84;5052089;28;20955;-59
2021/10/04 07:04:15;;;;;;;0.30;0.20;;;;;;;14.32;100.00;100429.16;5052236;28;20537;-58
2021/10/04 07:06:42;;;;;;;0.30;0.20;;;;;;;14.32;100.00;100431.84;5052184;28;20467;-59
2021/10/04 07:09:09;;;;;;;0.30;0.20;;;;;;;14.25;100.00;100431.22;5051789;28;20477;-58
2021/10/04 07:11:36;;;;;;;0.30;0.20;;;;;;;14.30;100.00;100447.09;5052184;28;20482;-58
2021/10/04 07:14:03;;;;;;;3.13;1.13;;;;;;;14.34;100.00;100462.06;5051835;28;20490;-58
2021/10/04 07:16:30;;;;;;;0.37;0.30;;;;;;;14.44;100.00;100461.66;5044317;28;20471;-57
2021/10/04 07:18:57;;;;;;;0.33;0.23;;;;;;;14.47;100.00;100456.16;5048678;28;20506;-59
2021/10/04 07:21:24;;;;;;;0.40;0.40;;;;;;;14.49;100.00;100458.78;5050661;28;20943;-58
2021/10/04 07:23:51;;;;;;;0.30;0.20;;;;;;;14.63;100.00;100456.38;5054209;28;20872;-59
2021/10/04 07:26:18;;;;;;;0.30;0.20;;;;;;;14.68;100.00;100477.63;5056038;28;20467;-58
2021/10/04 07:28:45;;;;;;;0.30;0.20;;;;;;;14.70;100.00;100492.66;5055674;28;20447;-58
2021/10/04 07:31:12;;;;;;;0.30;0.20;;;;;;;14.68;100.00;100482.97;5056063;28;20459;-59
2021/10/04 07:33:39;;;;;;;0.30;0.20;;;;;;;14.72;100.00;100490.78;5054457;28;20486;-58
2021/10/04 07:36:07;;;;;;;0.30;0.20;;;;;;;14.65;100.00;100496.44;5055394;28;20478;-58
2021/10/04 07:38:35;;;;;;;0.30;0.20;;;;;;;14.66;100.00;100500.88;5055662;28;20482;-59
2021/10/04 07:41:05;;;;;;;0.43;0.43;;;;;;;14.65;100.00;100510.69;5055704;28;20464;-58
2021/10/04 07:43:33;;;;;;;0.30;0.20;;;;;;;14.65;100.00;100505.34;5055432;28;20482;-59
2021/10/04 07:46:03;;;;;;;0.30;0.20;;;;;;;14.67;100.00;100507.97;5053737;28;21045;-58
2021/10/04 07:48:31;;;;;;;0.30;0.20;;;;;;;14.71;100.00;100512.25;5053375;28;20447;-58
2021/10/04 07:50:59;;;;;;;0.43;0.43;;;;;;;14.77;100.00;100507.50;5055596;28;20442;-58
2021/10/04 07:53:26;;;;;;;0.30;0.20;;;;;;;14.79;100.00;100505.63;5055347;28;20829;-58
2021/10/04 07:55:52;;;;;;;0.90;0.90;;;;;;;14.89;100.00;100503.44;5055312;28;20492;-59
2021/10/04 07:58:19;;;;;;;0.30;0.20;;;;;;;14.92;100.00;100499.75;5055459;28;20505;-59
2021/10/04 08:00:46;;;;;;;0.30;0.20;;;;;;;14.99;100.00;100493.22;5055393;28;20994;-59
2021/10/04 08:03:13;;;;;;;0.30;0.30;;;;;;;14.95;100.00;100489.81;5055356;28;20462;-59
2021/10/04 08:05:40;;;;;;;0.30;0.20;;;;;;;15.02;100.00;100485.03;5055145;28;20446;-59
2021/10/04 08:08:07;;;;;;;0.30;0.20;;;;;;;15.14;100.00;100494.34;5055388;28;20532;-59
2021/10/04 08:10:34;;;;;;;0.30;0.20;;;;;;;15.09;100.00;100490.09;5055015;28;20470;-59
2021/10/04 08:13:01;;;;;;;0.50;0.47;;;;;;;15.26;100.00;100486.66;5055456;28;20443;-59
2021/10/04 08:15:28;;;;;;;0.30;0.20;;;;;;;15.30;100.00;100482.00;5054896;28;20524;-58
2021/10/04 08:17:55;;;;;;;0.30;0.20;;;;;;;15.26;100.00;100475.94;5043700;28;20920;-59
2021/10/04 08:20:22;;;;;;;0.30;0.20;;;;;;;15.44;100.00;100468.00;5053807;28;20450;-59
2021/10/04 08:22:49;;;;;;;0.30;0.20;;;;;;;15.34;100.00;100481.78;5055139;28;20458;-59
2021/10/04 08:25:16;;;;;;;0.50;0.50;;;;;;;15.27;100.00;100464.28;5054897;28;20508;-59
2021/10/04 08:27:43;;;;;;;0.30;0.20;;;;;;;15.37;100.00;100475.47;5054876;28;20498;-59
2021/10/04 08:30:12;;;;;;;0.40;0.30;;;;;;;15.44;100.00;100481.38;5054927;28;20497;-59
2021/10/04 08:32:39;;;;;;;0.30;0.20;;;;;;;15.48;100.00;100485.66;5054985;28;20478;-59
2021/10/04 08:35:07;;;;;;;0.97;0.73;;;;;;;15.58;100.00;100485.19;5054047;28;20518;-59
2021/10/04 08:37:34;;;;;;;0.30;0.20;;;;;;;15.72;100.00;100486.38;5054375;28;20899;-59
2021/10/04 08:40:09;;;;;;;0.30;0.20;;;;;;;15.55;100.00;100479.97;5054443;28;20815;-59
2021/10/04 08:42:38;;;;;;;0.30;0.20;;;;;;;15.43;100.00;100485.00;5053507;28;20442;-59
2021/10/04 08:45:06;;;;;;;0.40;0.20;;;;;;;15.53;100.00;100486.34;5054673;28;20470;-58
2021/10/04 08:47:39;;;;;;;0.30;0.20;;;;;;;15.56;100.00;100479.03;5051526;28;20467;-59
2021/10/04 08:50:10;;;;;;;0.30;0.20;;;;;;;15.67;100.00;100482.13;5054340;28;20509;-59
2021/10/04 08:52:37;;;;;;;0.30;0.20;;;;;;;15.70;100.00;100489.13;5054705;28;20446;-58
2021/10/04 08:55:04;;;;;;;0.40;0.30;;;;;;;15.72;100.00;100494.44;5054388;28;20565;-59
2021/10/04 08:57:32;;;;;;;0.30;0.20;;;;;;;15.83;100.00;100494.81;5054329;28;20516;-58
2021/10/04 08:59:59;;;;;;;0.40;0.30;;;;;;;15.87;100.00;100496.38;5054199;28;20554;-59
2021/10/04 09:02:27;;;;;;;0.30;0.20;;;;;;;15.95;100.00;100504.94;5054151;28;20569;-58
2021/10/04 09:05:10;;;;;;;0.43;0.43;;;;;;;15.98;100.00;100516.38;5054605;28;20524;-58
2021/10/04 09:08:12;;;;;;;0.30;0.20;;;;;;;16.02;100.00;100516.25;5053954;28;20503;-59
2021/10/04 09:10:46;;;;;;;0.30;0.20;;;;;;;16.06;100.00;100516.03;5040355;28;20506;-58
2021/10/04 09:13:15;;;;;;;0.30;0.20;;;;;;;16.09;99.91;100512.34;5054226;28;20451;-59
2021/10/04 09:15:47;;;;;;;0.30;0.20;;;;;;;16.44;97.77;100506.13;5052706;28;20995;-59
2021/10/04 09:18:23;;;;;;;0.30;0.20;;;;;;;16.43;97.81;100506.19;5044632;28;20478;-59
2021/10/04 09:21:08;;;;;;;0.30;0.20;;;;;;;16.44;97.17;100507.94;5053608;28;20442;-59
2021/10/04 09:23:56;;;;;;;0.40;0.20;;;;;;;16.35;97.49;100505.72;5053640;28;20885;-59
2021/10/04 09:26:26;;;;;;;0.30;0.20;;;;;;;16.47;97.45;100513.16;5052473;28;20470;-59
2021/10/04 09:28:57;;;;;;;0.30;0.20;;;;;;;16.56;97.60;100516.25;5053513;28;20460;-58
2021/10/04 09:31:27;;;;;;;0.40;0.20;;;;;;;16.49;97.72;100520.19;5053708;28;20479;-58
2021/10/04 09:34:16;;;;;;;0.40;0.33;;;;;;;16.15;99.18;100517.41;5053312;28;20450;-59
2021/10/04 09:36:45;;;;;;;0.37;0.20;;;;;;;16.08;98.44;100519.50;5053381;28;20999;-59
2021/10/04 09:39:14;;;;;;;0.40;0.20;;;;;;;16.23;98.15;100516.09;5053513;28;20462;-58
2021/10/04 09:41:58;;;;;;;0.30;0.20;;;;;;;16.28;97.88;100519.41;5053433;28;20956;-59
2021/10/04 09:44:27;;;;;;;0.80;0.67;;;;;;;16.42;97.25;100515.19;5053338;28;20490;-58
2021/10/04 09:47:11;;;;;;;0.40;0.20;;;;;;;16.56;97.30;100526.97;5050449;28;20462;-59
2021/10/04 09:49:52;;;;;;;0.40;0.20;;;;;;;16.29;98.31;100517.59;5053097;28;20504;-58
2021/10/04 09:52:35;;;;;;;0.30;0.20;;;;;;;16.58;97.12;100510.78;5053277;28;20477;-59
2021/10/04 09:55:24;;;;;;;0.40;0.20;;;;;;;16.49;96.38;100516.63;5053086;28;20486;-58
2021/10/04 09:58:04;;;;;;;0.40;0.20;;;;;;;16.49;97.18;100517.50;5053052;28;20495;-59
2021/10/04 10:00:36;;;;;;;0.40;0.20;;;;;;;16.69;95.69;100499.56;5053085;28;20924;-58
2021/10/04 10:03:05;;;;;;;0.40;0.20;;;;;;;16.64;96.85;100504.28;5052814;28;20526;-58
2021/10/04 10:05:35;;;;;;;0.40;0.20;;;;;;;16.63;96.46;100505.22;5053248;28;20458;-59
2021/10/04 10:08:04;;;;;;;0.37;0.20;;;;;;;16.70;97.33;100498.63;5053171;28;20517;-59
2021/10/04 10:10:37;;;;;;;0.40;0.20;;;;;;;16.42;96.20;100510.69;5052780;28;20446;-58
2021/10/04 10:13:06;;;;;;;0.40;0.20;;;;;;;16.54;96.05;100510.09;5052936;28;20501;-58
2021/10/04 10:15:34;;;;;;;0.30;0.20;;;;;;;16.62;93.66;100506.16;5052481;28;20520;-58
2021/10/04 10:18:16;;;;;;;0.40;0.20;;;;;;;16.72;93.43;100494.94;5038955;28;20447;-59
2021/10/04 10:20:44;;;;;;;0.40;0.20;;;;;;;16.57;92.94;100492.97;5052589;28;20489;-58
2021/10/04 10:23:11;;;;;;;0.40;0.30;;;;;;;16.30;94.58;100485.31;5052880;28;20443;-59
2021/10/04 10:25:42;;;;;;;0.40;0.20;;;;;;;16.43;95.03;100490.09;5052377;28;20447;-58
2021/10/04 10:28:32;;;;;;;0.40;0.20;;;;;;;16.47;94.53;100497.94;5052751;28;20501;-59
2021/10/04 10:31:01;;;;;;;0.37;0.20;;;;;;;16.48;93.58;100504.16;5029576;28;20482;-59
2021/10/04 10:33:50;;;;;;;0.30;0.20;;;;;;;16.67;93.33;100502.31;5052272;28;20959;-58
2021/10/04 10:36:37;;;;;;;0.30;0.20;;;;;;;16.80;92.70;100506.13;5052080;28;20494;-59
2021/10/04 10:39:06;;;;;;;0.40;0.20;;;;;;;16.44;93.68;100511.47;5052413;28;20462;-59
2021/10/04 10:41:34;;;;;;;0.40;0.20;;;;;;;16.39;93.82;100515.34;5052162;28;20511;-59
2021/10/04 10:44:09;;;;;;;0.30;0.20;;;;;;;16.44;94.10;100522.22;5054612;28;20502;-59
2021/10/04 10:46:44;;;;;;;0.30;0.20;;;;;;;16.49;94.14;100519.31;5048654;28;20522;-59
2021/10/04 10:49:11;;;;;;;0.40;0.20;;;;;;;16.42;94.14;100505.31;5052546;28;20674;-58
2021/10/04 10:52:17;;;;;;;0.30;0.20;;;;;;;16.46;94.63;100498.88;5052260;28;20486;-59
2021/10/04 10:54:52;;;;;;;0.40;0.20;;;;;;;16.54;93.94;100499.34;5052101;28;20490;-59
2021/10/04 10:57:21;;;;;;;0.30;0.20;;;;;;;16.69;94.58;100491.50;5052087;28;20498;-59
2021/10/04 11:00:21;;;;;;;0.33;0.20;;;;;;;16.66;93.81;100488.94;5052037;28;20813;-59
2021/10/04 11:02:56;;;;;;;0.30;0.20;;;;;;;16.82;93.55;100493.50;5045930;28;20486;-59
2021/10/04 11:05:37;;;;;;;0.40;0.20;;;;;;;16.74;94.26;100487.66;5052491;28;20544;-58
2021/10/04 11:08:10;;;;;;;0.30;0.20;;;;;;;16.84;92.75;100485.34;5051874;28;20851;-57
2021/10/04 11:10:49;;;;;;;0.37;0.20;;;;;;;16.88;91.73;100485.16;5052026;28;20451;-57
2021/10/04 11:13:22;;;;;;;0.30;0.20;;;;;;;16.75;92.55;100485.84;5052208;28;20512;-56
2021/10/04 11:15:52;;;;;;;0.40;0.20;;;;;;;16.99;92.59;100481.88;5049888;28;20551;-56
2021/10/04 11:18:21;;;;;;;0.40;0.20;;;;;;;17.00;91.40;100475.59;5043334;28;20581;-58
2021/10/04 11:20:48;;;;;;;0.40;0.20;;;;;;;16.97;91.89;100482.91;5051754;28;20493;-59
2021/10/04 11:23:18;;;;;;;0.40;0.20;;;;;;;17.02;90.90;100489.81;5051930;28;20455;-59
2021/10/04 11:25:52;;;;;;;0.40;0.30;;;;;;;17.05;90.82;100504.88;5051710;28;20443;-57
2021/10/04 11:28:41;;;;;;;1.03;1.03;;;;;;;17.18;91.03;100505.97;5051844;28;20823;-56